createdAt,value
2019-04-29T00:02:34.433Z,94.60
2019-04-29T00:05:05.733Z,94.70
2019-04-29T00:07:35.952Z,94.80
2019-04-29T00:10:11.184Z,94.90
2019-04-29T00:12:41.149Z,95.00
2019-04-29T00:15:35.132Z,94.90
2019-04-29T00:18:10.446Z,94.80
2019-04-29T00:20:44.929Z,94.80
2019-04-29T00:23:14.946Z,94.90
2019-04-29T00:25:44.966Z,94.90
2019-04-29T00:28:15.424Z,94.90
2019-04-29T00:30:45.851Z,95.10
2019-04-29T00:33:16.400Z,95.10
2019-04-29T00:35:46.453Z,95.00
2019-04-29T00:38:40.781Z,95.00
2019-04-29T00:41:32.588Z,95.20
2019-04-29T00:44:07.826Z,95.10
2019-04-29T00:46:37.921Z,94.90
2019-04-29T00:49:07.881Z,95.00
2019-04-29T00:51:37.893Z,95.20
2019-04-29T00:54:24.229Z,95.30
2019-04-29T00:56:54.217Z,95.30
2019-04-29T00:59:24.192Z,95.30
2019-04-29T01:01:54.284Z,95.30
2019-04-29T01:04:24.639Z,95.30
2019-04-29T01:06:54.717Z,95.20
2019-04-29T01:09:25.257Z,95.30
2019-04-29T01:11:55.223Z,95.20
2019-04-29T01:14:25.182Z,95.40
2019-04-29T01:16:55.192Z,95.40
2019-04-29T01:19:25.177Z,95.40
2019-04-29T01:21:55.155Z,95.50
2019-04-29T01:24:25.169Z,95.60
2019-04-29T01:27:03.647Z,95.50
2019-04-29T01:29:34.645Z,95.60
2019-04-29T01:32:06.696Z,95.70
2019-04-29T01:34:46.089Z,95.70
2019-04-29T01:37:16.614Z,95.50
2019-04-29T01:39:52.337Z,95.50
2019-04-29T01:42:25.917Z,95.50
2019-04-29T01:44:55.893Z,95.50
2019-04-29T01:47:25.915Z,95.80
2019-04-29T01:49:55.888Z,95.70
2019-04-29T01:52:26.267Z,95.70
2019-04-29T01:54:56.580Z,95.70
2019-04-29T01:57:26.654Z,95.50
2019-04-29T01:59:56.627Z,95.50
2019-04-29T02:02:26.721Z,95.60
2019-04-29T02:04:56.771Z,95.60
2019-04-29T02:07:26.759Z,95.70
2019-04-29T02:10:02.691Z,95.70
2019-04-29T02:12:32.691Z,95.60
2019-04-29T02:15:02.740Z,95.60
2019-04-29T02:17:33.936Z,95.60
2019-04-29T02:20:04.604Z,95.90
2019-04-29T02:22:43.321Z,95.90
2019-04-29T02:25:17.968Z,96.00
2019-04-29T02:27:48.007Z,95.90
2019-04-29T02:30:44.377Z,96.00
2019-04-29T02:33:14.443Z,96.00
2019-04-29T02:35:44.505Z,96.00
2019-04-29T02:38:42.828Z,96.00
2019-04-29T02:41:20.102Z,96.00
2019-04-29T02:43:51.629Z,96.00
2019-04-29T02:46:21.587Z,96.00
2019-04-29T02:48:52.001Z,96.10
2019-04-29T02:51:40.023Z,96.20
2019-04-29T02:54:10.034Z,96.20
2019-04-29T02:56:41.747Z,96.20
2019-04-29T02:59:12.802Z,96.20
2019-04-29T03:01:56.393Z,96.40
2019-04-29T03:04:28.707Z,96.20
2019-04-29T03:06:58.694Z,96.20
2019-04-29T03:09:30.354Z,96.60
2019-04-29T03:12:01.870Z,96.40
2019-04-29T03:14:32.113Z,96.50
2019-04-29T03:17:02.094Z,96.40
2019-04-29T03:19:35.303Z,96.30
2019-04-29T03:22:07.162Z,96.40
2019-04-29T03:24:37.211Z,96.70
2019-04-29T03:27:07.210Z,96.50
2019-04-29T03:29:37.365Z,96.40
2019-04-29T03:32:07.390Z,96.50
2019-04-29T03:34:37.470Z,96.60
2019-04-29T03:37:07.463Z,96.70
2019-04-29T03:39:37.460Z,96.60
2019-04-29T03:42:07.653Z,96.60
2019-04-29T03:44:37.966Z,96.60
2019-04-29T03:47:07.964Z,96.50
2019-04-29T03:49:38.046Z,96.40
2019-04-29T03:52:08.094Z,96.60
2019-04-29T03:54:38.186Z,96.50
2019-04-29T03:57:09.627Z,96.60
2019-04-29T03:59:40.964Z,96.50
2019-04-29T04:02:19.378Z,96.50
2019-04-29T04:04:57.705Z,96.50
2019-04-29T04:07:46.713Z,96.60
2019-04-29T04:10:16.895Z,96.70
2019-04-29T04:12:46.864Z,96.50
2019-04-29T04:15:16.970Z,96.50
2019-04-29T04:17:56.863Z,96.60
2019-04-29T04:20:27.282Z,96.60
2019-04-29T04:22:57.307Z,96.50
2019-04-29T04:25:27.514Z,96.50
2019-04-29T04:27:57.526Z,96.50
2019-04-29T04:30:27.513Z,96.50
2019-04-29T04:32:57.485Z,96.40
2019-04-29T04:35:28.250Z,96.00
2019-04-29T04:37:58.254Z,95.90
2019-04-29T04:40:35.325Z,95.90
2019-04-29T04:43:05.380Z,96.00
2019-04-29T04:45:35.491Z,96.00
2019-04-29T04:48:06.454Z,95.80
2019-04-29T04:50:36.465Z,95.60
2019-04-29T04:53:06.576Z,95.60
2019-04-29T04:55:38.353Z,95.40
2019-04-29T04:58:08.356Z,95.20
2019-04-29T05:00:38.710Z,95.00
2019-04-29T05:03:09.080Z,95.10
2019-04-29T05:05:39.070Z,94.60
2019-04-29T05:08:10.149Z,94.40
2019-04-29T05:10:40.202Z,94.10
2019-04-29T05:13:10.215Z,93.80
2019-04-29T05:15:40.189Z,93.60
2019-04-29T05:18:10.261Z,93.50
2019-04-29T05:20:40.342Z,93.20
2019-04-29T05:23:10.352Z,92.70
2019-04-29T05:25:40.318Z,92.60
2019-04-29T05:28:10.374Z,92.60
2019-04-29T05:30:40.734Z,92.50
2019-04-29T05:33:10.732Z,92.30
2019-04-29T05:36:02.073Z,92.00
2019-04-29T05:38:37.502Z,91.90
2019-04-29T05:41:12.094Z,91.80
2019-04-29T05:44:04.424Z,91.80
2019-04-29T05:46:41.954Z,91.60
2019-04-29T05:49:15.400Z,91.50
2019-04-29T05:52:04.483Z,91.30
2019-04-29T05:54:34.819Z,91.20
2019-04-29T05:57:04.841Z,91.30
2019-04-29T05:59:35.052Z,91.20
2019-04-29T06:02:05.105Z,90.90
2019-04-29T06:04:35.106Z,90.90
2019-04-29T06:07:05.158Z,90.70
2019-04-29T06:09:35.177Z,90.20
2019-04-29T06:12:05.193Z,90.00
2019-04-29T06:14:35.184Z,89.50
2019-04-29T06:17:07.726Z,88.60
2019-04-29T06:19:39.362Z,87.90
2019-04-29T06:22:08.623Z,88.50
2019-04-29T06:24:41.035Z,86.30
2019-04-29T06:27:10.621Z,85.70
2019-04-29T06:29:40.879Z,85.30
2019-04-29T06:32:10.845Z,85.20
2019-04-29T06:34:41.767Z,84.70
2019-04-29T06:37:12.002Z,83.90
2019-04-29T06:39:41.988Z,82.40
2019-04-29T06:42:15.433Z,82.40
2019-04-29T06:44:44.321Z,81.60
2019-04-29T06:47:17.002Z,80.60
2019-04-29T06:49:48.194Z,79.90
2019-04-29T06:52:18.175Z,79.50
2019-04-29T06:54:48.233Z,78.30
2019-04-29T06:57:18.213Z,78.00
2019-04-29T06:59:48.725Z,76.00
2019-04-29T07:02:18.866Z,76.20
2019-04-29T07:04:48.861Z,75.90
2019-04-29T07:07:19.110Z,73.60
2019-04-29T07:09:49.137Z,69.80
2019-04-29T07:12:19.126Z,68.30
2019-04-29T07:15:01.229Z,65.40
2019-04-29T07:17:31.370Z,63.10
2019-04-29T07:20:03.332Z,60.90
2019-04-29T07:22:34.574Z,59.10
2019-04-29T07:25:04.752Z,58.20
2019-04-29T07:27:42.837Z,56.70
2019-04-29T07:30:08.396Z,56.00
2019-04-29T07:32:41.992Z,55.90
2019-04-29T07:35:11.524Z,55.00
2019-04-29T07:37:41.815Z,54.00
2019-04-29T07:40:12.335Z,52.50
2019-04-29T07:42:42.339Z,53.20
2019-04-29T07:45:44.455Z,53.50
2019-04-29T07:48:12.579Z,52.50
2019-04-29T07:50:42.803Z,51.90
2019-04-29T07:53:12.895Z,51.20
2019-04-29T07:55:43.006Z,49.60
2019-04-29T07:58:13.008Z,47.80
2019-04-29T08:00:44.524Z,45.50
2019-04-29T08:03:14.830Z,43.70
2019-04-29T08:05:44.947Z,41.00
2019-04-29T08:08:16.620Z,39.30
2019-04-29T08:10:56.184Z,38.50
2019-04-29T08:13:21.015Z,38.20
2019-04-29T08:15:51.075Z,36.50
2019-04-29T08:18:21.075Z,35.30
2019-04-29T08:20:51.143Z,33.90
2019-04-29T08:23:21.159Z,32.50
2019-04-29T08:25:51.234Z,31.80
2019-04-29T08:28:21.311Z,31.50
2019-04-29T08:30:51.414Z,32.20
2019-04-29T08:33:21.401Z,34.90
2019-04-29T08:35:51.443Z,35.70
2019-04-29T08:38:21.455Z,33.60
2019-04-29T08:40:51.735Z,32.70
2019-04-29T08:43:34.586Z,33.70
2019-04-29T08:46:10.618Z,34.00
2019-04-29T08:48:40.639Z,33.50
2019-04-29T08:51:10.659Z,33.20
2019-04-29T08:53:40.767Z,33.60
2019-04-29T08:56:12.146Z,35.90
2019-04-29T08:58:44.413Z,37.50
2019-04-29T09:01:14.078Z,37.10
2019-04-29T09:03:44.095Z,39.20
2019-04-29T09:06:14.110Z,41.90
2019-04-29T09:08:54.467Z,41.40
2019-04-29T09:11:15.862Z,41.40
2019-04-29T09:13:45.972Z,40.40
2019-04-29T09:16:16.011Z,40.80
2019-04-29T09:18:46.000Z,42.30
2019-04-29T09:21:16.160Z,43.10
2019-04-29T09:23:46.142Z,43.50
2019-04-29T09:26:31.504Z,42.00
2019-04-29T09:29:20.603Z,42.00
2019-04-29T09:31:50.741Z,42.10
2019-04-29T09:34:24.838Z,42.10
2019-04-29T09:36:53.695Z,42.30
2019-04-29T09:39:23.716Z,43.40
2019-04-29T09:42:03.394Z,45.10
2019-04-29T09:44:57.864Z,45.70
2019-04-29T09:47:28.360Z,46.70
2019-04-29T09:49:58.564Z,46.60
2019-04-29T09:52:28.708Z,47.50
2019-04-29T09:54:59.611Z,47.90
2019-04-29T09:57:30.873Z,46.80
2019-04-29T10:00:07.105Z,45.80
2019-04-29T10:02:59.074Z,45.00
2019-04-29T10:05:38.917Z,44.80
2019-04-29T10:08:08.913Z,45.20
2019-04-29T10:10:38.953Z,45.30
2019-04-29T10:13:09.036Z,44.60
2019-04-29T10:15:49.164Z,44.70
2019-04-29T10:18:37.328Z,45.50
2019-04-29T10:21:09.743Z,45.50
2019-04-29T10:23:40.134Z,45.60
2019-04-29T10:26:10.159Z,45.70
2019-04-29T10:28:51.483Z,47.00
2019-04-29T10:31:21.938Z,46.50
2019-04-29T10:33:54.889Z,46.30
2019-04-29T10:36:26.204Z,46.60
2019-04-29T10:38:57.611Z,45.70
2019-04-29T10:41:41.726Z,45.80
2019-04-29T10:44:30.932Z,45.70
2019-04-29T10:47:19.108Z,46.40
2019-04-29T10:49:54.264Z,46.10
2019-04-29T10:52:24.567Z,46.10
2019-04-29T10:54:56.512Z,46.30
2019-04-29T10:57:29.254Z,47.10
2019-04-29T11:00:10.071Z,46.20
2019-04-29T11:02:44.734Z,44.30
2019-04-29T11:05:44.668Z,44.50
2019-04-29T11:08:38.237Z,43.80
2019-04-29T11:11:22.176Z,45.70
2019-04-29T11:13:47.024Z,45.50
2019-04-29T11:16:14.283Z,45.60
2019-04-29T11:18:44.324Z,45.90
2019-04-29T11:21:14.603Z,45.60
2019-04-29T11:23:54.832Z,45.80
2019-04-29T11:26:36.402Z,45.00
2019-04-29T11:29:09.368Z,44.30
2019-04-29T11:31:39.321Z,44.10
2019-04-29T11:34:34.240Z,44.40
2019-04-29T11:37:06.451Z,43.60
2019-04-29T11:39:36.562Z,43.80
2019-04-29T11:42:09.840Z,44.90
2019-04-29T11:44:39.884Z,45.00
2019-04-29T11:47:10.000Z,45.00
2019-04-29T11:49:47.994Z,43.90
2019-04-29T11:52:18.450Z,43.50
2019-04-29T11:54:48.523Z,42.50
2019-04-29T11:57:40.427Z,42.90
2019-04-29T12:00:15.796Z,43.40
2019-04-29T12:02:50.636Z,43.00
2019-04-29T12:05:33.101Z,43.40
2019-04-29T12:08:11.150Z,43.10
2019-04-29T12:10:38.296Z,42.10
2019-04-29T12:13:10.429Z,41.80
2019-04-29T12:15:56.917Z,40.90
2019-04-29T12:18:34.011Z,40.90
2019-04-29T12:21:17.602Z,40.10
2019-04-29T12:23:47.885Z,40.40
2019-04-29T12:26:19.356Z,40.50
2019-04-29T12:28:49.397Z,40.00
2019-04-29T12:31:36.048Z,39.30
2019-04-29T12:34:17.295Z,38.60
2019-04-29T12:36:56.175Z,38.70
2019-04-29T12:39:43.433Z,39.00
2019-04-29T12:42:17.282Z,39.70
2019-04-29T12:44:53.725Z,40.70
2019-04-29T12:47:27.692Z,41.60
2019-04-29T12:49:57.732Z,41.40
2019-04-29T12:52:27.840Z,41.70
2019-04-29T12:55:00.944Z,42.00
2019-04-29T12:57:29.926Z,42.30
2019-04-29T13:00:01.663Z,43.00
2019-04-29T13:02:51.007Z,41.70
2019-04-29T13:05:27.137Z,40.90
2019-04-29T13:08:03.258Z,41.40
2019-04-29T13:10:50.561Z,42.60
2019-04-29T13:13:22.024Z,43.80
2019-04-29T13:16:03.946Z,44.00
2019-04-29T13:18:48.831Z,43.60
2019-04-29T13:21:17.221Z,43.30
2019-04-29T13:24:04.956Z,43.00
2019-04-29T13:26:27.966Z,43.70
2019-04-29T13:29:00.387Z,44.30
2019-04-29T13:31:37.527Z,44.60
2019-04-29T13:33:55.918Z,46.00
2019-04-29T13:36:27.385Z,48.00
2019-04-29T13:38:57.548Z,50.50
2019-04-29T13:41:27.874Z,52.40
2019-04-29T13:44:05.686Z,53.90
2019-04-29T13:46:51.175Z,53.90
2019-04-29T13:49:40.810Z,53.10
2019-04-29T13:52:11.265Z,51.90
2019-04-29T13:54:42.367Z,54.00
2019-04-29T13:57:15.889Z,52.60
2019-04-29T13:59:53.345Z,52.40
2019-04-29T14:02:36.698Z,52.70
2019-04-29T14:05:06.761Z,52.80
2019-04-29T14:07:39.452Z,53.70
2019-04-29T14:10:10.304Z,54.30
2019-04-29T14:12:51.121Z,55.00
2019-04-29T14:15:13.064Z,56.60
2019-04-29T14:17:43.084Z,56.50
2019-04-29T14:20:15.955Z,56.80
2019-04-29T14:22:45.023Z,56.70
2019-04-29T14:25:15.232Z,56.40
2019-04-29T14:27:45.251Z,56.90
2019-04-29T14:30:20.643Z,57.20
2019-04-29T14:32:52.204Z,57.80
2019-04-29T14:35:30.289Z,59.00
2019-04-29T14:38:05.142Z,60.20
2019-04-29T14:40:32.166Z,61.80
2019-04-29T14:43:31.354Z,60.70
2019-04-29T14:46:16.533Z,61.20
2019-04-29T14:49:04.530Z,61.30
2019-04-29T14:51:36.639Z,60.00
2019-04-29T14:54:06.036Z,60.50
2019-04-29T14:56:36.396Z,61.10
2019-04-29T14:59:07.548Z,61.60
2019-04-29T15:01:52.620Z,62.30
2019-04-29T15:04:25.160Z,62.00
2019-04-29T15:06:55.466Z,61.90
2019-04-29T15:09:25.534Z,61.60
2019-04-29T15:12:21.878Z,61.90
2019-04-29T15:14:59.186Z,60.70
2019-04-29T15:17:40.328Z,60.00
2019-04-29T15:20:31.963Z,57.80
2019-04-29T15:23:02.588Z,58.10
2019-04-29T15:25:32.963Z,56.80
2019-04-29T15:28:03.121Z,56.90
2019-04-29T15:30:36.767Z,56.70
2019-04-29T15:33:05.089Z,56.30
2019-04-29T15:35:35.143Z,55.90
2019-04-29T15:38:05.222Z,56.60
2019-04-29T15:40:42.828Z,56.70
2019-04-29T15:43:07.318Z,55.70
2019-04-29T15:45:40.705Z,56.30
2019-04-29T15:48:10.924Z,55.70
2019-04-29T15:50:40.934Z,57.30
2019-04-29T15:53:11.580Z,58.40
2019-04-29T15:55:41.781Z,60.20
2019-04-29T15:58:11.872Z,61.50
2019-04-29T16:00:42.079Z,62.40
2019-04-29T16:03:12.717Z,64.50
2019-04-29T16:06:19.827Z,65.20
2019-04-29T16:08:47.331Z,66.60
2019-04-29T16:11:35.571Z,67.70
2019-04-29T16:14:10.020Z,67.90
2019-04-29T16:16:39.718Z,68.60
2019-04-29T16:19:10.546Z,70.70
2019-04-29T16:21:41.780Z,72.60
2019-04-29T16:24:25.982Z,74.20
2019-04-29T16:26:44.948Z,73.00
2019-04-29T16:29:15.524Z,75.30
2019-04-29T16:31:45.706Z,75.50
2019-04-29T16:34:15.959Z,74.40
2019-04-29T16:36:50.030Z,74.80
2019-04-29T16:39:17.808Z,75.00
2019-04-29T16:42:05.760Z,75.40
2019-04-29T16:44:36.557Z,76.00
2019-04-29T16:47:13.446Z,78.30
2019-04-29T16:49:40.315Z,76.60
2019-04-29T16:52:10.350Z,76.40
2019-04-29T16:54:40.500Z,77.00
2019-04-29T16:57:11.728Z,76.80
2019-04-29T16:59:41.907Z,77.20
2019-04-29T17:02:18.998Z,77.60
2019-04-29T17:04:43.776Z,77.90
2019-04-29T17:07:15.362Z,78.30
2019-04-29T17:10:01.376Z,78.30
2019-04-29T17:12:38.027Z,78.60
2019-04-29T17:15:23.832Z,78.10
2019-04-29T17:17:41.361Z,79.10
2019-04-29T17:20:11.764Z,78.70
2019-04-29T17:22:43.107Z,78.40
2019-04-29T17:25:14.427Z,78.90
2019-04-29T17:28:11.883Z,79.80
2019-04-29T17:31:12.067Z,79.20
2019-04-29T17:33:49.937Z,79.30
2019-04-29T17:36:23.598Z,79.60
2019-04-29T17:38:50.447Z,79.10
2019-04-29T17:41:20.557Z,78.90
2019-04-29T17:44:18.695Z,79.50
2019-04-29T17:47:07.108Z,81.40
2019-04-29T17:49:54.723Z,83.90
2019-04-29T17:52:29.834Z,81.60
2019-04-29T17:55:15.261Z,82.10
2019-04-29T17:57:59.872Z,83.20
2019-04-29T18:00:43.762Z,84.00
2019-04-29T18:03:34.747Z,85.70
2019-04-29T18:06:17.226Z,84.60
2019-04-29T18:08:55.042Z,83.30
2019-04-29T18:11:25.226Z,82.50
2019-04-29T18:13:56.936Z,83.70
2019-04-29T18:16:35.265Z,84.50
2019-04-29T18:19:15.721Z,84.70
2019-04-29T18:22:03.752Z,85.70
2019-04-29T18:24:45.327Z,85.50
2019-04-29T18:27:18.427Z,86.00
2019-04-29T18:29:48.550Z,86.50
2019-04-29T18:32:18.670Z,85.30
2019-04-29T18:34:48.789Z,86.20
2019-04-29T18:37:19.403Z,86.40
2019-04-29T18:39:49.476Z,85.80
2019-04-29T18:42:19.575Z,86.40
2019-04-29T18:44:59.442Z,86.00
2019-04-29T18:47:23.076Z,86.30
2019-04-29T18:49:53.091Z,86.00
2019-04-29T18:52:26.555Z,85.40
2019-04-29T18:54:55.979Z,85.20
2019-04-29T18:57:30.515Z,85.00
2019-04-29T18:59:57.814Z,85.50
2019-04-29T19:02:27.863Z,84.70
2019-04-29T19:05:17.240Z,84.40
2019-04-29T19:07:55.352Z,85.20
2019-04-29T19:10:19.916Z,85.40
2019-04-29T19:12:58.220Z,84.70
2019-04-29T19:15:21.735Z,85.60
2019-04-29T19:17:59.064Z,85.40
2019-04-29T19:20:25.081Z,85.20
2019-04-29T19:23:05.470Z,85.30
2019-04-29T19:25:27.073Z,86.00
2019-04-29T19:27:57.136Z,84.90
2019-04-29T19:30:29.261Z,86.00
2019-04-29T19:33:00.283Z,87.20
2019-04-29T19:35:37.015Z,87.50
2019-04-29T19:38:02.818Z,88.70
2019-04-29T19:40:38.885Z,87.60
2019-04-29T19:43:10.320Z,88.20
2019-04-29T19:45:44.790Z,88.30
2019-04-29T19:48:16.093Z,88.70
2019-04-29T19:50:49.612Z,88.50
2019-04-29T19:53:19.844Z,89.20
2019-04-29T19:56:01.473Z,89.50
2019-04-29T19:58:27.922Z,90.40
2019-04-29T20:00:57.301Z,90.30
2019-04-29T20:03:35.761Z,90.20
2019-04-29T20:06:08.755Z,90.30
2019-04-29T20:08:52.552Z,90.20
2019-04-29T20:11:14.317Z,90.50
2019-04-29T20:13:40.828Z,90.40
2019-04-29T20:16:43.063Z,90.70
2019-04-29T20:19:16.559Z,91.00
2019-04-29T20:21:42.484Z,91.10
2019-04-29T20:24:15.442Z,91.20
2019-04-29T20:26:46.775Z,91.40
2019-04-29T20:29:16.284Z,91.60
2019-04-29T20:31:51.478Z,91.10
2019-04-29T20:34:23.567Z,91.40
2019-04-29T20:36:50.552Z,91.30
2019-04-29T20:39:23.538Z,91.30
2019-04-29T20:41:52.608Z,91.40
2019-04-29T20:44:23.155Z,91.50
2019-04-29T20:47:14.205Z,91.30
2019-04-29T20:49:30.956Z,91.60
2019-04-29T20:52:21.686Z,91.20
2019-04-29T20:55:18.854Z,91.50
2019-04-29T20:57:52.390Z,91.80
2019-04-29T21:00:24.904Z,92.00
2019-04-29T21:02:53.918Z,91.70
2019-04-29T21:05:25.442Z,91.70
2019-04-29T21:08:02.949Z,91.80
2019-04-29T21:10:28.909Z,92.00
2019-04-29T21:13:33.545Z,91.70
2019-04-29T21:16:16.738Z,92.00
2019-04-29T21:18:52.797Z,92.20
2019-04-29T21:21:19.055Z,92.40
2019-04-29T21:23:49.119Z,92.30
2019-04-29T21:26:19.171Z,92.30
2019-04-29T21:28:49.202Z,92.10
2019-04-29T21:31:19.993Z,92.40
2019-04-29T21:33:55.386Z,92.50
2019-04-29T21:36:34.898Z,92.60
2019-04-29T21:39:25.132Z,92.80
2019-04-29T21:42:15.769Z,92.70
2019-04-29T21:44:46.023Z,92.80
2019-04-29T21:47:16.321Z,92.80
2019-04-29T21:49:49.824Z,93.10
2019-04-29T21:52:19.762Z,93.20
2019-04-29T21:54:50.730Z,93.50
2019-04-29T21:57:23.712Z,93.10
2019-04-29T21:59:52.694Z,92.90
2019-04-29T22:02:23.042Z,92.80
2019-04-29T22:04:55.067Z,93.10
2019-04-29T22:07:25.862Z,93.20
2019-04-29T22:09:56.069Z,93.30
2019-04-29T22:12:26.091Z,92.90
2019-04-29T22:14:59.447Z,92.90
2019-04-29T22:17:32.759Z,92.80
2019-04-29T22:20:04.202Z,93.00
2019-04-29T22:22:36.530Z,93.20
2019-04-29T22:25:09.938Z,93.20
2019-04-29T22:27:41.270Z,92.90
2019-04-29T22:30:15.260Z,92.70
2019-04-29T22:32:46.935Z,92.80
2019-04-29T22:35:16.916Z,92.80
2019-04-29T22:37:47.188Z,92.60
2019-04-29T22:40:17.494Z,92.60
2019-04-29T22:43:10.162Z,92.50
2019-04-29T22:45:40.593Z,92.60
2019-04-29T22:48:16.450Z,92.60
2019-04-29T22:50:43.156Z,92.80
2019-04-29T22:53:14.814Z,92.50
2019-04-29T22:55:45.269Z,92.30
2019-04-29T22:58:15.460Z,92.40
2019-04-29T23:00:45.612Z,92.30
2019-04-29T23:03:15.747Z,92.50
2019-04-29T23:05:46.147Z,92.70
2019-04-29T23:08:16.438Z,92.90
2019-04-29T23:10:47.008Z,92.40
2019-04-29T23:13:17.264Z,92.30
2019-04-29T23:15:47.614Z,92.40
2019-04-29T23:18:24.723Z,92.60
2019-04-29T23:21:22.083Z,92.30
2019-04-29T23:24:01.315Z,92.60
2019-04-29T23:26:34.819Z,92.10
2019-04-29T23:29:07.174Z,92.00
2019-04-29T23:31:37.035Z,92.30
2019-04-29T23:34:07.827Z,92.10
2019-04-29T23:36:38.255Z,92.20
2019-04-29T23:39:08.969Z,92.10
2019-04-29T23:41:40.787Z,91.90
2019-04-29T23:44:10.928Z,91.90
2019-04-29T23:46:41.240Z,91.90
2019-04-29T23:49:11.355Z,91.70
2019-04-29T23:51:41.540Z,91.70
2019-04-29T23:54:11.876Z,92.00
2019-04-29T23:57:01.148Z,92.30
2019-04-29T23:59:35.080Z,91.90
